Malolo — ABC1234 — position and weather

sailwx.info

Track history (hours):
 
Tides and Currents Weather Stations Pressure Air Temp Water Temp Dewpoint Dewpoint Depression Visibility Wind Speed Wind Dir Waves Ship Positions

Malolo

Last reported at 2017-Apr-23 14:40 UTC. Time now 2017-May-01 06:07 UTC.
Position N 32°43' W 117°14'.

Length 14 m.

Type: Sailing vessel. MMSI: 338047815.

Date/timePositionNaut miles runAvg speedWind from/ knotsBaromVisibWave heightAir tempDewpointWater temp
2017-Apr-23 14:40N 32°43' W 117°14'0 0.0
2017-Apr-23 06:16N 32°43' W 117°14'0 0.0
2017-Apr-23 05:58N 32°43' W 117°14'0 0.0
2017-Apr-23 05:28N 32°43' W 117°14'0 0.0
2017-Apr-23 04:58N 32°43' W 117°14'81381.2
2017-Apr-23 04:45N 33°39' W 118°24'2 5.8
2017-Apr-23 04:28N 33°37' W 118°24'8020504.5
2017-Apr-23 04:28N 32°43' W 117°14'6519.0
2017-Apr-23 01:02N 33°17' W 118°20'0 6.4
2017-Apr-23 00:59N 33°17' W 118°20'4 6.9
2017-Apr-23 00:28N 33°18' W 118°24'6920.8
2017-Apr-22 21:10N 32°43' W 117°14'0 0.0
2017-Apr-22 14:52N 32°43' W 117°14'0 0.0
2017-Apr-22 10:22N 32°43' W 117°14'0 0.0
2017-Apr-22 09:52N 32°43' W 117°14'0 0.0
2017-Apr-22 09:28N 32°43' W 117°14'0 0.0
2017-Apr-22 08:40N 32°43' W 117°14'0 0.0
2017-Apr-22 08:22N 32°43' W 117°14'0 0.0
2017-Apr-22 04:28N 32°43' W 117°14'0 0.0
2017-Apr-22 03:16N 32°43' W 117°14'0 0.0
2017-Apr-21 11:10N 32°43' W 117°14'0 0.0
2017-Apr-21 10:46N 32°43' W 117°14'0 0.0
2017-Apr-21 10:28N 32°43' W 117°14'0 0.0
2017-Apr-21 09:52N 32°43' W 117°14'  
2017-Apr-16 21:03N 33°46' W 118°27'0 6.1
2017-Apr-16 20:59N 33°46' W 118°27'3 5.3
2017-Apr-16 20:30N 33°43' W 118°27'8 5.2
2017-Apr-16 18:59N 33°36' W 118°27'3 5.2
2017-Apr-16 18:28N 33°33' W 118°27'5 5.2
2017-Apr-16 17:30N 33°28' W 118°29'78 6.9
2017-Apr-16 06:10N 32°43' W 117°14'  
Track history (hours):
 
Tides and Currents Weather Stations Pressure Air Temp Water Temp Dewpoint Dewpoint Depression Visibility Wind Speed Wind Dir Waves Ship Positions

Malolo

Last reported at 2017-Apr-23 14:40 UTC. Time now 2017-May-01 06:07 UTC.
Position N 32°43' W 117°14'.

Length 14 m.

Type: Sailing vessel. MMSI: 338047815.

Date/timePositionNaut miles runAvg speedWind from/ knotsBaromVisibWave heightAir tempDewpointWater temp
2017-Apr-23 14:40N 32°43' W 117°14'0 0.0
2017-Apr-23 06:16N 32°43' W 117°14'0 0.0
2017-Apr-23 05:58N 32°43' W 117°14'0 0.0
2017-Apr-23 05:28N 32°43' W 117°14'0 0.0
2017-Apr-23 04:58N 32°43' W 117°14'81381.2
2017-Apr-23 04:45N 33°39' W 118°24'2 5.8
2017-Apr-23 04:28N 33°37' W 118°24'8020504.5
2017-Apr-23 04:28N 32°43' W 117°14'6519.0
2017-Apr-23 01:02N 33°17' W 118°20'0 6.4
2017-Apr-23 00:59N 33°17' W 118°20'4 6.9
2017-Apr-23 00:28N 33°18' W 118°24'6920.8
2017-Apr-22 21:10N 32°43' W 117°14'0 0.0
2017-Apr-22 14:52N 32°43' W 117°14'0 0.0
2017-Apr-22 10:22N 32°43' W 117°14'0 0.0
2017-Apr-22 09:52N 32°43' W 117°14'0 0.0
2017-Apr-22 09:28N 32°43' W 117°14'0 0.0
2017-Apr-22 08:40N 32°43' W 117°14'0 0.0
2017-Apr-22 08:22N 32°43' W 117°14'0 0.0
2017-Apr-22 04:28N 32°43' W 117°14'0 0.0
2017-Apr-22 03:16N 32°43' W 117°14'0 0.0
2017-Apr-21 11:10N 32°43' W 117°14'0 0.0
2017-Apr-21 10:46N 32°43' W 117°14'0 0.0
2017-Apr-21 10:28N 32°43' W 117°14'0 0.0
2017-Apr-21 09:52N 32°43' W 117°14'  
2017-Apr-16 21:03N 33°46' W 118°27'0 6.1
2017-Apr-16 20:59N 33°46' W 118°27'3 5.3
2017-Apr-16 20:30N 33°43' W 118°27'8 5.2
2017-Apr-16 18:59N 33°36' W 118°27'3 5.2
2017-Apr-16 18:28N 33°33' W 118°27'5 5.2
2017-Apr-16 17:30N 33°28' W 118°29'78 6.9
2017-Apr-16 06:10N 32°43' W 117°14'  

Dump ship's entire track history